Ana Sayfa
METAR-TAF:

METAR-TAF

Havaalanları :

David Wayne Hooks Memorial Airport

Houston / Tomball, Teksas, Amerika Birleşik Devletleri

Enlem: 30-04-03N, Boylam: 095-33-22W, yükseklik: 46 m

Güncel hava durumu gözlemi

Rapor saat 08:53 UTC de 44 dakika önce yapıldı.
Sakin rüzgar
Sıcaklık 24°C
Nem 89%
Basınç 1013 hPa
Görüş mesafesi: 16.1 km
5500 ft yükseklikte parçalı çok bulutlu

METAR: KDWH 180853Z AUTO 00000KT 10SM BKN055 24/22 A2990 RMK AO2 SLP124 T02390222 57002

Saat: 04:37 (09:37 UTC)


TAF: eksik

4.000'den fazla havaalanı için hava durumu gözlemleri ve tahminleri (METAR ve TAF raporları).

Kullanılabilir istasyonlar harita üzerinde sarı ve kırmızı noktalarla gösterilir.

İstasyonun adını görmek için fareyi noktanın üzerinde gezdirin.

Sonrasında hava gözlem ve tahminlerini görmek için tıklayın.

Haritayı değiştirmek için: yaklaştırmak için siyah artı işaretli yeşil düğmeye ve uzaklaştırmak için de eksi işaretli düğmeye hızla tıklayın; bitişik haritalar için yeşil okları kullanın.


METAR-TAF: